sensor_id;sensor_type;location;lat;lon;timestamp;temperature;humidity
9828;DHT22;4953;48.952;9.442;2022-12-29T05:00:39;11.60;99.90
9828;DHT22;4953;48.952;9.442;2022-12-29T05:03:06;11.60;99.90
9828;DHT22;4953;48.952;9.442;2022-12-29T05:05:33;11.60;99.90
9828;DHT22;4953;48.952;9.442;2022-12-29T05:07:59;11.60;99.90
9828;DHT22;4953;48.952;9.442;2022-12-29T05:10:26;11.60;99.90
9828;DHT22;4953;48.952;9.442;2022-12-29T05:12:53;11.60;99.90
9828;DHT22;4953;48.952;9.442;2022-12-29T05:15:20;11.60;99.90
9828;DHT22;4953;48.952;9.442;2022-12-29T05:17:49;11.60;99.90
9828;DHT22;4953;48.952;9.442;2022-12-29T05:20:16;11.60;99.90
9828;DHT22;4953;48.952;9.442;2022-12-29T05:22:42;11.60;99.90
9828;DHT22;4953;48.952;9.442;2022-12-29T05:25:09;11.60;99.90
9828;DHT22;4953;48.952;9.442;2022-12-29T05:27:36;11.60;99.90
9828;DHT22;4953;48.952;9.442;2022-12-29T05:30:04;11.60;99.90
9828;DHT22;4953;48.952;9.442;2022-12-29T05:32:30;11.60;99.90
9828;DHT22;4953;48.952;9.442;2022-12-29T05:34:59;11.50;99.90
9828;DHT22;4953;48.952;9.442;2022-12-29T05:37:25;11.60;99.90
9828;DHT22;4953;48.952;9.442;2022-12-29T05:39:52;11.50;99.90
9828;DHT22;4953;48.952;9.442;2022-12-29T05:42:19;11.50;99.90
9828;DHT22;4953;48.952;9.442;2022-12-29T05:44:46;11.50;99.90
9828;DHT22;4953;48.952;9.442;2022-12-29T05:47:15;11.50;99.90
9828;DHT22;4953;48.952;9.442;2022-12-29T05:49:42;11.50;99.90
9828;DHT22;4953;48.952;9.442;2022-12-29T05:52:10;11.50;99.90
9828;DHT22;4953;48.952;9.442;2022-12-29T05:54:37;11.50;99.90
9828;DHT22;4953;48.952;9.442;2022-12-29T05:57:03;11.50;99.90
9828;DHT22;4953;48.952;9.442;2022-12-29T05:59:30;11.50;99.90
9828;DHT22;4953;48.952;9.442;2022-12-29T06:01:57;11.50;99.90
9828;DHT22;4953;48.952;9.442;2022-12-29T06:04:24;11.50;99.90
9828;DHT22;4953;48.952;9.442;2022-12-29T06:06:50;11.60;99.90
9828;DHT22;4953;48.952;9.442;2022-12-29T06:09:19;11.60;99.90
9828;DHT22;4953;48.952;9.442;2022-12-29T06:11:45;11.60;99.90
9828;DHT22;4953;48.952;9.442;2022-12-29T06:14:12;11.60;99.90
9828;DHT22;4953;48.952;9.442;2022-12-29T06:16:39;11.60;99.90
9828;DHT22;4953;48.952;9.442;2022-12-29T06:19:07;11.60;99.90
9828;DHT22;4953;48.952;9.442;2022-12-29T06:21:34;11.60;99.90
9828;DHT22;4953;48.952;9.442;2022-12-29T06:24:00;11.60;99.90
9828;DHT22;4953;48.952;9.442;2022-12-29T06:26:28;11.60;99.90
9828;DHT22;4953;48.952;9.442;2022-12-29T06:28:55;11.60;99.90
9828;DHT22;4953;48.952;9.442;2022-12-29T06:31:22;11.60;99.90
9828;DHT22;4953;48.952;9.442;2022-12-29T06:33:49;11.60;99.90
9828;DHT22;4953;48.952;9.442;2022-12-29T06:36:16;11.60;99.90
9828;DHT22;4953;48.952;9.442;2022-12-29T06:38:42;11.60;99.90
9828;DHT22;4953;48.952;9.442;2022-12-29T06:41:09;11.60;99.90
9828;DHT22;4953;48.952;9.442;2022-12-29T06:43:37;11.60;99.90
9828;DHT22;4953;48.952;9.442;2022-12-29T06:46:04;11.60;99.90
9828;DHT22;4953;48.952;9.442;2022-12-29T06:48:31;11.70;99.90
9828;DHT22;4953;48.952;9.442;2022-12-29T06:50:58;11.60;99.90
9828;DHT22;4953;48.952;9.442;2022-12-29T06:53:24;11.70;99.90
9828;DHT22;4953;48.952;9.442;2022-12-29T06:55:51;11.70;99.90
9828;DHT22;4953;48.952;9.442;2022-12-29T06:58:18;11.70;99.90
9828;DHT22;4953;48.952;9.442;2022-12-29T07:00:46;11.70;99.90
9828;DHT22;4953;48.952;9.442;2022-12-29T07:03:13;11.70;99.90
9828;DHT22;4953;48.952;9.442;2022-12-29T07:05:40;11.70;99.90
9828;DHT22;4953;48.952;9.442;2022-12-29T07:08:07;11.70;99.90
9828;DHT22;4953;48.952;9.442;2022-12-29T07:10:34;11.70;99.90
9828;DHT22;4953;48.952;9.442;2022-12-29T07:13:01;11.70;99.90
9828;DHT22;4953;48.952;9.442;2022-12-29T07:15:28;11.70;99.90
9828;DHT22;4953;48.952;9.442;2022-12-29T07:17:56;11.70;99.90
9828;DHT22;4953;48.952;9.442;2022-12-29T07:20:22;11.80;99.90
9828;DHT22;4953;48.952;9.442;2022-12-29T07:22:49;11.80;99.90
9828;DHT22;4953;48.952;9.442;2022-12-29T07:25:16;11.80;99.90
9828;DHT22;4953;48.952;9.442;2022-12-29T07:27:43;11.80;99.90
9828;DHT22;4953;48.952;9.442;2022-12-29T07:30:13;11.70;99.90
9828;DHT22;4953;48.952;9.442;2022-12-29T07:32:41;11.70;99.90
9828;DHT22;4953;48.952;9.442;2022-12-29T07:35:09;11.70;99.90
9828;DHT22;4953;48.952;9.442;2022-12-29T07:37:36;11.70;99.90
9828;DHT22;4953;48.952;9.442;2022-12-29T07:40:03;11.70;99.90
9828;DHT22;4953;48.952;9.442;2022-12-29T07:42:30;11.80;99.90
9828;DHT22;4953;48.952;9.442;2022-12-29T07:44:57;11.80;99.90
9828;DHT22;4953;48.952;9.442;2022-12-29T07:47:24;11.80;99.90
9828;DHT22;4953;48.952;9.442;2022-12-29T07:49:51;11.80;99.90
9828;DHT22;4953;48.952;9.442;2022-12-29T07:52:19;11.80;99.90
9828;DHT22;4953;48.952;9.442;2022-12-29T07:54:46;11.80;99.90
9828;DHT22;4953;48.952;9.442;2022-12-29T07:57:13;11.80;99.90
9828;DHT22;4953;48.952;9.442;2022-12-29T07:59:40;11.80;99.90
9828;DHT22;4953;48.952;9.442;2022-12-29T08:02:09;11.80;99.90
9828;DHT22;4953;48.952;9.442;2022-12-29T08:04:36;11.80;99.90
9828;DHT22;4953;48.952;9.442;2022-12-29T08:07:03;11.80;99.90
9828;DHT22;4953;48.952;9.442;2022-12-29T08:09:31;11.80;99.90
9828;DHT22;4953;48.952;9.442;2022-12-29T08:11:58;11.80;99.90
9828;DHT22;4953;48.952;9.442;2022-12-29T08:14:25;11.90;99.90
9828;DHT22;4953;48.952;9.442;2022-12-29T08:16:51;11.90;99.90
9828;DHT22;4953;48.952;9.442;2022-12-29T08:19:18;11.90;99.90
9828;DHT22;4953;48.952;9.442;2022-12-29T08:21:45;12.00;99.90
9828;DHT22;4953;48.952;9.442;2022-12-29T08:24:11;12.00;99.90
9828;DHT22;4953;48.952;9.442;2022-12-29T08:26:40;12.00;99.90
9828;DHT22;4953;48.952;9.442;2022-12-29T08:29:06;12.10;99.90
9828;DHT22;4953;48.952;9.442;2022-12-29T08:31:34;12.10;99.90
9828;DHT22;4953;48.952;9.442;2022-12-29T08:34:01;12.20;99.90
9828;DHT22;4953;48.952;9.442;2022-12-29T08:36:29;12.10;99.90
9828;DHT22;4953;48.952;9.442;2022-12-29T08:38:56;12.10;99.90
9828;DHT22;4953;48.952;9.442;2022-12-29T08:41:22;12.20;99.90
9828;DHT22;4953;48.952;9.442;2022-12-29T08:43:51;12.20;99.90
9828;DHT22;4953;48.952;9.442;2022-12-29T08:46:17;12.20;99.90
9828;DHT22;4953;48.952;9.442;2022-12-29T08:48:44;12.20;99.90
9828;DHT22;4953;48.952;9.442;2022-12-29T08:51:11;12.20;99.90
9828;DHT22;4953;48.952;9.442;2022-12-29T08:53:40;12.20;99.90
9828;DHT22;4953;48.952;9.442;2022-12-29T08:56:09;12.20;99.90
9828;DHT22;4953;48.952;9.442;2022-12-29T08:58:36;12.30;99.90
9828;DHT22;4953;48.952;9.442;2022-12-29T09:01:05;12.30;99.90
9828;DHT22;4953;48.952;9.442;2022-12-29T09:03:31;12.30;99.90
9828;DHT22;4953;48.952;9.442;2022-12-29T09:05:59;12.30;99.90
9828;DHT22;4953;48.952;9.442;2022-12-29T09:08:25;12.40;99.90
9828;DHT22;4953;48.952;9.442;2022-12-29T09:10:52;12.40;99.90
9828;DHT22;4953;48.952;9.442;2022-12-29T09:13:19;12.40;99.90
9828;DHT22;4953;48.952;9.442;2022-12-29T09:15:46;12.40;99.90
9828;DHT22;4953;48.952;9.442;2022-12-29T09:18:14;12.40;99.90
9828;DHT22;4953;48.952;9.442;2022-12-29T09:20:41;12.50;99.90
9828;DHT22;4953;48.952;9.442;2022-12-29T09:23:08;12.50;99.90
9828;DHT22;4953;48.952;9.442;2022-12-29T09:25:34;12.50;99.90
9828;DHT22;4953;48.952;9.442;2022-12-29T09:28:01;12.60;99.90
9828;DHT22;4953;48.952;9.442;2022-12-29T09:30:33;12.60;99.90
9828;DHT22;4953;48.952;9.442;2022-12-29T09:32:59;12.60;99.90
9828;DHT22;4953;48.952;9.442;2022-12-29T09:35:27;12.70;99.90
9828;DHT22;4953;48.952;9.442;2022-12-29T09:37:54;12.70;99.90
9828;DHT22;4953;48.952;9.442;2022-12-29T09:40:27;12.70;99.90
9828;DHT22;4953;48.952;9.442;2022-12-29T09:43:17;12.70;99.90
9828;DHT22;4953;48.952;9.442;2022-12-29T09:45:54;12.70;99.90
9828;DHT22;4953;48.952;9.442;2022-12-29T09:48:25;12.70;99.90
9828;DHT22;4953;48.952;9.442;2022-12-29T09:50:56;12.70;99.90
9828;DHT22;4953;48.952;9.442;2022-12-29T09:53:28;12.80;99.90
9828;DHT22;4953;48.952;9.442;2022-12-29T09:55:59;12.80;99.90
9828;DHT22;4953;48.952;9.442;2022-12-29T09:58:29;12.80;99.90
9828;DHT22;4953;48.952;9.442;2022-12-29T10:01:03;12.80;99.90
9828;DHT22;4953;48.952;9.442;2022-12-29T10:03:40;12.90;99.90
9828;DHT22;4953;48.952;9.442;2022-12-29T10:06:11;12.90;99.90
9828;DHT22;4953;48.952;9.442;2022-12-29T10:08:44;12.90;99.90
9828;DHT22;4953;48.952;9.442;2022-12-29T10:11:24;13.00;99.90
9828;DHT22;4953;48.952;9.442;2022-12-29T10:14:14;13.00;99.90
9828;DHT22;4953;48.952;9.442;2022-12-29T10:16:47;13.00;99.90
9828;DHT22;4953;48.952;9.442;2022-12-29T10:19:32;13.10;99.90
9828;DHT22;4953;48.952;9.442;2022-12-29T10:22:12;13.10;99.90
9828;DHT22;4953;48.952;9.442;2022-12-29T10:24:45;13.10;99.90
9828;DHT22;4953;48.952;9.442;2022-12-29T10:27:13;13.00;99.90
9828;DHT22;4953;48.952;9.442;2022-12-29T10:29:48;13.10;99.90
9828;DHT22;4953;48.952;9.442;2022-12-29T10:32:24;13.00;99.90
9828;DHT22;4953;48.952;9.442;2022-12-29T10:34:56;13.00;99.90
9828;DHT22;4953;48.952;9.442;2022-12-29T10:37:31;13.00;99.90
9828;DHT22;4953;48.952;9.442;2022-12-29T10:39:59;12.90;99.90
9828;DHT22;4953;48.952;9.442;2022-12-29T10:42:34;13.00;99.90
9828;DHT22;4953;48.952;9.442;2022-12-29T10:45:03;12.90;99.90
9828;DHT22;4953;48.952;9.442;2022-12-29T10:47:34;12.90;99.90
9828;DHT22;4953;48.952;9.442;2022-12-29T10:50:03;12.90;99.90
9828;DHT22;4953;48.952;9.442;2022-12-29T10:52:33;12.90;99.90
9828;DHT22;4953;48.952;9.442;2022-12-29T10:55:02;12.90;99.90
9828;DHT22;4953;48.952;9.442;2022-12-29T10:57:33;12.90;99.90
9828;DHT22;4953;48.952;9.442;2022-12-29T11:00:05;12.80;99.90
9828;DHT22;4953;48.952;9.442;2022-12-29T11:02:53;12.80;99.90
9828;DHT22;4953;48.952;9.442;2022-12-29T11:05:29;12.70;99.90
9828;DHT22;4953;48.952;9.442;2022-12-29T11:08:02;12.80;99.90
9828;DHT22;4953;48.952;9.442;2022-12-29T11:10:36;12.80;99.90
9828;DHT22;4953;48.952;9.442;2022-12-29T11:13:11;12.80;99.90
9828;DHT22;4953;48.952;9.442;2022-12-29T11:15:39;12.80;99.90
9828;DHT22;4953;48.952;9.442;2022-12-29T11:18:17;12.80;99.90
9828;DHT22;4953;48.952;9.442;2022-12-29T11:20:45;12.80;99.90
9828;DHT22;4953;48.952;9.442;2022-12-29T11:23:29;12.80;99.90
9828;DHT22;4953;48.952;9.442;2022-12-29T11:26:17;12.80;99.90
9828;DHT22;4953;48.952;9.442;2022-12-29T11:28:46;12.90;99.90
9828;DHT22;4953;48.952;9.442;2022-12-29T11:31:16;12.90;99.90
9828;DHT22;4953;48.952;9.442;2022-12-29T11:33:43;12.90;99.90
9828;DHT22;4953;48.952;9.442;2022-12-29T11:36:13;13.00;99.90
9828;DHT22;4953;48.952;9.442;2022-12-29T11:38:45;13.00;99.90
9828;DHT22;4953;48.952;9.442;2022-12-29T11:41:18;13.00;99.90
9828;DHT22;4953;48.952;9.442;2022-12-29T11:43:45;13.00;99.90
9828;DHT22;4953;48.952;9.442;2022-12-29T11:46:16;13.00;99.90
9828;DHT22;4953;48.952;9.442;2022-12-29T11:48:45;13.10;99.90
9828;DHT22;4953;48.952;9.442;2022-12-29T11:51:13;13.10;99.90
9828;DHT22;4953;48.952;9.442;2022-12-29T11:53:51;13.10;99.90
9828;DHT22;4953;48.952;9.442;2022-12-29T11:56:21;13.10;99.90
9828;DHT22;4953;48.952;9.442;2022-12-29T11:58:50;13.10;99.90
9828;DHT22;4953;48.952;9.442;2022-12-29T12:01:20;13.10;99.90
9828;DHT22;4953;48.952;9.442;2022-12-29T12:03:58;13.10;99.90
9828;DHT22;4953;48.952;9.442;2022-12-29T12:06:29;13.10;99.90
9828;DHT22;4953;48.952;9.442;2022-12-29T12:09:00;13.10;99.90
9828;DHT22;4953;48.952;9.442;2022-12-29T12:11:32;13.10;99.90
9828;DHT22;4953;48.952;9.442;2022-12-29T12:14:07;13.00;99.90
9828;DHT22;4953;48.952;9.442;2022-12-29T12:16:41;13.10;99.90
9828;DHT22;4953;48.952;9.442;2022-12-29T12:19:15;13.10;99.90
9828;DHT22;4953;48.952;9.442;2022-12-29T12:21:49;13.10;99.90
9828;DHT22;4953;48.952;9.442;2022-12-29T12:24:34;13.10;99.90
9828;DHT22;4953;48.952;9.442;2022-12-29T12:27:10;13.10;99.90
9828;DHT22;4953;48.952;9.442;2022-12-29T12:29:42;13.00;99.90
9828;DHT22;4953;48.952;9.442;2022-12-29T12:32:15;12.90;99.90
9828;DHT22;4953;48.952;9.442;2022-12-29T12:34:45;12.80;99.90
9828;DHT22;4953;48.952;9.442;2022-12-29T12:37:22;12.70;99.90
9828;DHT22;4953;48.952;9.442;2022-12-29T12:40:18;12.70;99.90
9828;DHT22;4953;48.952;9.442;2022-12-29T12:42:56;12.70;99.90
9828;DHT22;4953;48.952;9.442;2022-12-29T12:45:36;12.70;99.90
9828;DHT22;4953;48.952;9.442;2022-12-29T12:48:27;12.70;99.90
9828;DHT22;4953;48.952;9.442;2022-12-29T12:51:06;12.70;99.90
9828;DHT22;4953;48.952;9.442;2022-12-29T12:53:47;12.70;99.90
9828;DHT22;4953;48.952;9.442;2022-12-29T12:56:35;12.70;99.90
9828;DHT22;4953;48.952;9.442;2022-12-29T12:59:13;12.70;99.90
9828;DHT22;4953;48.952;9.442;2022-12-29T13:01:51;12.60;99.90
9828;DHT22;4953;48.952;9.442;2022-12-29T13:04:42;12.60;99.90
9828;DHT22;4953;48.952;9.442;2022-12-29T13:07:19;12.60;99.90
9828;DHT22;4953;48.952;9.442;2022-12-29T13:09:57;12.60;99.90
9828;DHT22;4953;48.952;9.442;2022-12-29T13:12:35;12.60;99.90
9828;DHT22;4953;48.952;9.442;2022-12-29T13:15:14;12.60;99.90
9828;DHT22;4953;48.952;9.442;2022-12-29T13:17:47;12.60;99.90
9828;DHT22;4953;48.952;9.442;2022-12-29T13:20:26;12.60;99.90
9828;DHT22;4953;48.952;9.442;2022-12-29T13:23:02;12.70;99.90
9828;DHT22;4953;48.952;9.442;2022-12-29T13:25:37;12.70;99.90
9828;DHT22;4953;48.952;9.442;2022-12-29T13:28:12;12.70;99.90
9828;DHT22;4953;48.952;9.442;2022-12-29T13:30:45;12.70;99.90
9828;DHT22;4953;48.952;9.442;2022-12-29T13:33:21;12.70;99.90
9828;DHT22;4953;48.952;9.442;2022-12-29T13:35:56;12.70;99.90
9828;DHT22;4953;48.952;9.442;2022-12-29T13:38:26;12.70;99.90
9828;DHT22;4953;48.952;9.442;2022-12-29T13:40:56;12.70;99.90
9828;DHT22;4953;48.952;9.442;2022-12-29T13:43:27;12.60;99.90
9828;DHT22;4953;48.952;9.442;2022-12-29T13:45:59;12.70;99.90
9828;DHT22;4953;48.952;9.442;2022-12-29T13:48:34;12.70;99.90
9828;DHT22;4953;48.952;9.442;2022-12-29T13:51:02;12.80;99.90
9828;DHT22;4953;48.952;9.442;2022-12-29T13:53:35;12.80;99.90
9828;DHT22;4953;48.952;9.442;2022-12-29T13:56:07;12.80;99.90
9828;DHT22;4953;48.952;9.442;2022-12-29T13:58:40;12.70;99.90
9828;DHT22;4953;48.952;9.442;2022-12-29T14:01:12;12.70;99.90
9828;DHT22;4953;48.952;9.442;2022-12-29T14:03:46;12.70;99.90
9828;DHT22;4953;48.952;9.442;2022-12-29T14:06:21;12.80;99.90
9828;DHT22;4953;48.952;9.442;2022-12-29T14:08:51;12.70;99.90
9828;DHT22;4953;48.952;9.442;2022-12-29T14:11:21;12.70;99.90
9828;DHT22;4953;48.952;9.442;2022-12-29T14:13:51;12.70;99.90
9828;DHT22;4953;48.952;9.442;2022-12-29T14:16:39;12.70;99.90
9828;DHT22;4953;48.952;9.442;2022-12-29T14:19:13;12.70;99.90
9828;DHT22;4953;48.952;9.442;2022-12-29T14:21:41;12.70;99.90
9828;DHT22;4953;48.952;9.442;2022-12-29T14:24:38;12.70;99.90
9828;DHT22;4953;48.952;9.442;2022-12-29T14:27:43;12.70;99.90
9828;DHT22;4953;48.952;9.442;2022-12-29T14:30:48;12.60;99.90
9828;DHT22;4953;48.952;9.442;2022-12-29T14:33:16;12.60;99.90
9828;DHT22;4953;48.952;9.442;2022-12-29T14:35:44;12.50;99.90
9828;DHT22;4953;48.952;9.442;2022-12-29T14:38:17;12.50;99.90
9828;DHT22;4953;48.952;9.442;2022-12-29T14:40:45;12.50;99.90
9828;DHT22;4953;48.952;9.442;2022-12-29T14:43:16;12.40;99.90
9828;DHT22;4953;48.952;9.442;2022-12-29T14:45:54;12.40;99.90
9828;DHT22;4953;48.952;9.442;2022-12-29T14:48:37;12.40;99.90
9828;DHT22;4953;48.952;9.442;2022-12-29T14:51:19;12.40;99.90
9828;DHT22;4953;48.952;9.442;2022-12-29T14:53:48;12.40;99.90
9828;DHT22;4953;48.952;9.442;2022-12-29T14:56:17;12.30;99.90
9828;DHT22;4953;48.952;9.442;2022-12-29T14:58:51;12.40;99.90
9828;DHT22;4953;48.952;9.442;2022-12-29T15:01:29;12.30;99.90
9828;DHT22;4953;48.952;9.442;2022-12-29T15:04:05;12.30;99.90
9828;DHT22;4953;48.952;9.442;2022-12-29T15:06:39;12.30;99.90
9828;DHT22;4953;48.952;9.442;2022-12-29T15:09:15;12.40;99.90
9828;DHT22;4953;48.952;9.442;2022-12-29T15:11:50;12.30;99.90
9828;DHT22;4953;48.952;9.442;2022-12-29T15:14:35;12.40;99.90
9828;DHT22;4953;48.952;9.442;2022-12-29T15:17:20;12.40;99.90
9828;DHT22;4953;48.952;9.442;2022-12-29T15:19:48;12.40;99.90
9828;DHT22;4953;48.952;9.442;2022-12-29T15:22:15;12.40;99.90
9828;DHT22;4953;48.952;9.442;2022-12-29T15:24:43;12.40;99.90
9828;DHT22;4953;48.952;9.442;2022-12-29T15:27:13;12.40;99.90
9828;DHT22;4953;48.952;9.442;2022-12-29T15:29:42;12.40;99.90
9828;DHT22;4953;48.952;9.442;2022-12-29T15:32:22;12.40;99.90
9828;DHT22;4953;48.952;9.442;2022-12-29T15:34:52;12.40;99.90
9828;DHT22;4953;48.952;9.442;2022-12-29T15:37:21;12.40;99.90
9828;DHT22;4953;48.952;9.442;2022-12-29T15:39:48;12.40;99.90
9828;DHT22;4953;48.952;9.442;2022-12-29T15:42:27;12.40;99.90
9828;DHT22;4953;48.952;9.442;2022-12-29T15:44:57;12.30;99.90
9828;DHT22;4953;48.952;9.442;2022-12-29T15:47:29;12.60;99.90
9828;DHT22;4953;48.952;9.442;2022-12-29T15:50:04;12.50;99.90
9828;DHT22;4953;48.952;9.442;2022-12-29T15:52:32;12.40;99.90
9828;DHT22;4953;48.952;9.442;2022-12-29T15:55:00;12.30;99.90
9828;DHT22;4953;48.952;9.442;2022-12-29T15:57:29;11.90;99.90
9828;DHT22;4953;48.952;9.442;2022-12-29T15:59:58;11.60;99.90
9828;DHT22;4953;48.952;9.442;2022-12-29T16:02:27;11.20;99.90
9828;DHT22;4953;48.952;9.442;2022-12-29T16:04:54;11.10;99.90
9828;DHT22;4953;48.952;9.442;2022-12-29T16:07:25;10.90;99.90
9828;DHT22;4953;48.952;9.442;2022-12-29T16:09:57;10.70;99.90
9828;DHT22;4953;48.952;9.442;2022-12-29T16:12:27;10.60;99.90
9828;DHT22;4953;48.952;9.442;2022-12-29T16:14:58;10.60;99.90
9828;DHT22;4953;48.952;9.442;2022-12-29T16:17:29;10.50;99.90
9828;DHT22;4953;48.952;9.442;2022-12-29T16:19:57;10.40;99.90
9828;DHT22;4953;48.952;9.442;2022-12-29T16:22:28;10.40;99.90
9828;DHT22;4953;48.952;9.442;2022-12-29T16:24:58;10.40;99.90
9828;DHT22;4953;48.952;9.442;2022-12-29T16:27:31;10.50;99.90
9828;DHT22;4953;48.952;9.442;2022-12-29T16:30:03;10.40;99.90
9828;DHT22;4953;48.952;9.442;2022-12-29T16:32:32;10.40;99.90
9828;DHT22;4953;48.952;9.442;2022-12-29T16:35:10;10.50;99.90
9828;DHT22;4953;48.952;9.442;2022-12-29T16:37:38;10.50;99.90
9828;DHT22;4953;48.952;9.442;2022-12-29T16:40:23;10.60;99.90
9828;DHT22;4953;48.952;9.442;2022-12-29T16:42:54;10.60;99.90
9828;DHT22;4953;48.952;9.442;2022-12-29T16:48:56;10.60;99.90
9828;DHT22;4953;48.952;9.442;2022-12-29T16:51:29;10.60;99.90
9828;DHT22;4953;48.952;9.442;2022-12-29T16:53:57;10.70;99.90
9828;DHT22;4953;48.952;9.442;2022-12-29T16:56:27;10.70;99.90
9828;DHT22;4953;48.952;9.442;2022-12-29T16:59:01;10.70;99.90
9828;DHT22;4953;48.952;9.442;2022-12-29T17:01:29;10.80;99.90
9828;DHT22;4953;48.952;9.442;2022-12-29T17:04:00;10.70;99.90
9828;DHT22;4953;48.952;9.442;2022-12-29T17:06:31;10.70;99.90
9828;DHT22;4953;48.952;9.442;2022-12-29T17:08:58;10.70;99.90
9828;DHT22;4953;48.952;9.442;2022-12-29T17:11:28;10.70;99.90
9828;DHT22;4953;48.952;9.442;2022-12-29T17:14:30;10.60;99.90
9828;DHT22;4953;48.952;9.442;2022-12-29T17:16:58;10.70;99.90
9828;DHT22;4953;48.952;9.442;2022-12-29T17:19:30;10.60;99.90
9828;DHT22;4953;48.952;9.442;2022-12-29T17:21:57;10.70;99.90
9828;DHT22;4953;48.952;9.442;2022-12-29T17:24:24;10.70;99.90
9828;DHT22;4953;48.952;9.442;2022-12-29T17:26:53;10.70;99.90
9828;DHT22;4953;48.952;9.442;2022-12-29T17:29:27;10.70;99.90
9828;DHT22;4953;48.952;9.442;2022-12-29T17:31:55;10.70;99.90
9828;DHT22;4953;48.952;9.442;2022-12-29T17:34:21;10.70;99.90
9828;DHT22;4953;48.952;9.442;2022-12-29T17:36:50;10.70;99.90
9828;DHT22;4953;48.952;9.442;2022-12-29T17:39:17;10.80;99.90
9828;DHT22;4953;48.952;9.442;2022-12-29T17:41:44;10.80;99.90
9828;DHT22;4953;48.952;9.442;2022-12-29T17:44:16;10.80;99.90
9828;DHT22;4953;48.952;9.442;2022-12-29T17:46:43;10.80;99.90
9828;DHT22;4953;48.952;9.442;2022-12-29T17:49:12;10.70;99.90
9828;DHT22;4953;48.952;9.442;2022-12-29T17:51:39;10.80;99.90
9828;DHT22;4953;48.952;9.442;2022-12-29T17:54:18;10.70;99.90
9828;DHT22;4953;48.952;9.442;2022-12-29T17:56:46;10.70;99.90
9828;DHT22;4953;48.952;9.442;2022-12-29T17:59:13;10.70;99.90
9828;DHT22;4953;48.952;9.442;2022-12-29T18:01:42;10.60;99.90
9828;DHT22;4953;48.952;9.442;2022-12-29T18:04:11;10.60;99.90
9828;DHT22;4953;48.952;9.442;2022-12-29T18:06:39;10.50;99.90
9828;DHT22;4953;48.952;9.442;2022-12-29T18:09:06;10.50;99.90
9828;DHT22;4953;48.952;9.442;2022-12-29T18:11:38;10.50;99.90
9828;DHT22;4953;48.952;9.442;2022-12-29T18:14:07;10.40;99.90
9828;DHT22;4953;48.952;9.442;2022-12-29T18:16:35;10.40;99.90
9828;DHT22;4953;48.952;9.442;2022-12-29T18:19:01;10.30;99.90
9828;DHT22;4953;48.952;9.442;2022-12-29T18:21:28;10.40;99.90
9828;DHT22;4953;48.952;9.442;2022-12-29T18:23:55;10.40;99.90
9828;DHT22;4953;48.952;9.442;2022-12-29T18:26:23;10.40;99.90
9828;DHT22;4953;48.952;9.442;2022-12-29T18:28:53;10.40;99.90
9828;DHT22;4953;48.952;9.442;2022-12-29T18:31:22;10.40;99.90
9828;DHT22;4953;48.952;9.442;2022-12-29T18:33:50;10.30;99.90
9828;DHT22;4953;48.952;9.442;2022-12-29T18:36:18;10.40;99.90
9828;DHT22;4953;48.952;9.442;2022-12-29T18:38:45;10.30;99.90
9828;DHT22;4953;48.952;9.442;2022-12-29T18:41:16;10.20;99.90
9828;DHT22;4953;48.952;9.442;2022-12-29T18:43:43;10.10;99.90
9828;DHT22;4953;48.952;9.442;2022-12-29T18:46:12;10.00;99.90
9828;DHT22;4953;48.952;9.442;2022-12-29T18:48:39;9.90;99.90
9828;DHT22;4953;48.952;9.442;2022-12-29T18:51:13;9.80;99.90
9828;DHT22;4953;48.952;9.442;2022-12-29T18:53:41;9.70;99.90
9828;DHT22;4953;48.952;9.442;2022-12-29T18:56:07;9.70;99.90
9828;DHT22;4953;48.952;9.442;2022-12-29T18:58:34;9.70;99.90
9828;DHT22;4953;48.952;9.442;2022-12-29T19:01:02;9.60;99.90
9828;DHT22;4953;48.952;9.442;2022-12-29T19:03:31;9.50;99.90
9828;DHT22;4953;48.952;9.442;2022-12-29T19:05:58;9.50;99.90
9828;DHT22;4953;48.952;9.442;2022-12-29T19:08:25;9.60;99.90
9828;DHT22;4953;48.952;9.442;2022-12-29T19:10:52;9.60;99.90
9828;DHT22;4953;48.952;9.442;2022-12-29T19:13:21;9.60;99.90
9828;DHT22;4953;48.952;9.442;2022-12-29T19:15:53;9.60;99.90
9828;DHT22;4953;48.952;9.442;2022-12-29T19:18:22;9.50;99.90
9828;DHT22;4953;48.952;9.442;2022-12-29T19:20:52;9.50;99.90
9828;DHT22;4953;48.952;9.442;2022-12-29T19:23:23;9.50;99.90
9828;DHT22;4953;48.952;9.442;2022-12-29T19:25:50;9.50;99.90
9828;DHT22;4953;48.952;9.442;2022-12-29T19:28:20;9.60;99.90
9828;DHT22;4953;48.952;9.442;2022-12-29T19:30:48;9.60;99.90
9828;DHT22;4953;48.952;9.442;2022-12-29T19:33:16;9.50;99.90
9828;DHT22;4953;48.952;9.442;2022-12-29T19:35:43;9.50;99.90
9828;DHT22;4953;48.952;9.442;2022-12-29T19:38:12;9.50;99.90
9828;DHT22;4953;48.952;9.442;2022-12-29T19:40:41;9.50;99.90
9828;DHT22;4953;48.952;9.442;2022-12-29T19:43:09;9.50;99.90
9828;DHT22;4953;48.952;9.442;2022-12-29T19:45:38;9.60;99.90
9828;DHT22;4953;48.952;9.442;2022-12-29T19:48:05;9.60;99.90
9828;DHT22;4953;48.952;9.442;2022-12-29T19:50:32;9.60;99.90
9828;DHT22;4953;48.952;9.442;2022-12-29T19:52:59;9.60;99.90
9828;DHT22;4953;48.952;9.442;2022-12-29T19:55:28;9.60;99.90
9828;DHT22;4953;48.952;9.442;2022-12-29T19:57:55;9.60;99.90
9828;DHT22;4953;48.952;9.442;2022-12-29T20:00:22;9.60;99.90
9828;DHT22;4953;48.952;9.442;2022-12-29T20:02:49;9.50;99.90
9828;DHT22;4953;48.952;9.442;2022-12-29T20:05:16;9.60;99.90
9828;DHT22;4953;48.952;9.442;2022-12-29T20:07:43;9.50;99.90
9828;DHT22;4953;48.952;9.442;2022-12-29T20:10:10;9.50;99.90
9828;DHT22;4953;48.952;9.442;2022-12-29T20:12:38;9.40;99.90
9828;DHT22;4953;48.952;9.442;2022-12-29T20:15:07;9.40;99.90
9828;DHT22;4953;48.952;9.442;2022-12-29T20:17:34;9.40;99.90
9828;DHT22;4953;48.952;9.442;2022-12-29T20:20:01;9.40;99.90
9828;DHT22;4953;48.952;9.442;2022-12-29T20:22:29;9.50;99.90
9828;DHT22;4953;48.952;9.442;2022-12-29T20:24:55;9.50;99.90
9828;DHT22;4953;48.952;9.442;2022-12-29T20:27:22;9.50;99.90
9828;DHT22;4953;48.952;9.442;2022-12-29T20:29:50;9.50;99.90
9828;DHT22;4953;48.952;9.442;2022-12-29T20:32:19;9.50;99.90
9828;DHT22;4953;48.952;9.442;2022-12-29T20:34:46;9.50;99.90
9828;DHT22;4953;48.952;9.442;2022-12-29T20:37:14;9.50;99.90
9828;DHT22;4953;48.952;9.442;2022-12-29T20:39:41;9.50;99.90
9828;DHT22;4953;48.952;9.442;2022-12-29T20:42:08;9.40;99.90
9828;DHT22;4953;48.952;9.442;2022-12-29T20:44:35;9.40;99.90
9828;DHT22;4953;48.952;9.442;2022-12-29T20:47:04;9.40;99.90
9828;DHT22;4953;48.952;9.442;2022-12-29T20:49:33;9.30;99.90
9828;DHT22;4953;48.952;9.442;2022-12-29T20:52:00;9.20;99.90
9828;DHT22;4953;48.952;9.442;2022-12-29T20:54:27;9.20;99.90
9828;DHT22;4953;48.952;9.442;2022-12-29T20:56:55;9.10;99.90
9828;DHT22;4953;48.952;9.442;2022-12-29T20:59:22;9.10;99.90
9828;DHT22;4953;48.952;9.442;2022-12-29T21:01:49;9.00;99.90
9828;DHT22;4953;48.952;9.442;2022-12-29T21:04:17;9.00;99.90
9828;DHT22;4953;48.952;9.442;2022-12-29T21:06:44;9.00;99.90
9828;DHT22;4953;48.952;9.442;2022-12-29T21:09:11;9.00;99.90
9828;DHT22;4953;48.952;9.442;2022-12-29T21:11:38;8.90;99.90
9828;DHT22;4953;48.952;9.442;2022-12-29T21:14:05;8.90;99.90
9828;DHT22;4953;48.952;9.442;2022-12-29T21:16:32;9.00;99.90
9828;DHT22;4953;48.952;9.442;2022-12-29T21:18:59;9.00;99.90
9828;DHT22;4953;48.952;9.442;2022-12-29T21:21:27;8.90;99.90
9828;DHT22;4953;48.952;9.442;2022-12-29T21:23:54;8.80;99.90
9828;DHT22;4953;48.952;9.442;2022-12-29T21:26:30;8.80;99.90
9828;DHT22;4953;48.952;9.442;2022-12-29T21:28:57;8.80;99.90